METAR Data
IDs: Format: Raw Decoded Include TAF

Data at: 0952 UTC 18 Jan 2022

KYIP 180944Z 24007KT 10SM OVC029 M01/M07 A2993 RMK AO2 T10111067 $